createdAt,value
2017-11-14T00:02:24.035Z,90.70
2017-11-14T00:04:51.514Z,90.60
2017-11-14T00:07:18.992Z,90.60
2017-11-14T00:09:46.560Z,90.60
2017-11-14T00:12:14.079Z,90.60
2017-11-14T00:14:42.479Z,90.60
2017-11-14T00:17:10.047Z,90.60
2017-11-14T00:19:37.511Z,90.60
2017-11-14T00:22:05.005Z,90.60
2017-11-14T00:24:32.490Z,90.50
2017-11-14T00:27:00.736Z,90.50
2017-11-14T00:29:28.228Z,90.60
2017-11-14T00:31:55.739Z,90.50
2017-11-14T00:34:23.243Z,90.50
2017-11-14T00:36:50.720Z,90.50
2017-11-14T00:39:18.211Z,90.50
2017-11-14T00:41:45.757Z,90.50
2017-11-14T00:44:13.449Z,90.50
2017-11-14T00:46:41.972Z,90.50
2017-11-14T00:49:10.338Z,90.60
2017-11-14T00:51:37.976Z,90.40
2017-11-14T00:54:06.272Z,90.40
2017-11-14T00:56:34.557Z,90.40
2017-11-14T00:59:02.056Z,90.40
2017-11-14T01:01:29.548Z,90.40
2017-11-14T01:03:57.807Z,90.50
2017-11-14T01:06:25.327Z,90.40
2017-11-14T01:08:52.897Z,90.40
2017-11-14T01:11:20.401Z,90.50
2017-11-14T01:13:48.659Z,90.50
2017-11-14T01:16:16.135Z,90.50
2017-11-14T01:18:43.635Z,90.50
2017-11-14T01:21:11.152Z,90.50
2017-11-14T01:23:39.393Z,90.50
2017-11-14T01:26:06.876Z,90.40
2017-11-14T01:28:35.195Z,90.50
2017-11-14T01:31:02.805Z,90.50
2017-11-14T01:33:30.271Z,90.50
2017-11-14T01:35:58.541Z,90.50
2017-11-14T01:38:26.787Z,90.50
2017-11-14T01:40:54.262Z,90.50
2017-11-14T01:43:22.520Z,90.70
2017-11-14T01:45:50.047Z,90.50
2017-11-14T01:48:17.636Z,90.50
2017-11-14T01:50:45.216Z,90.40
2017-11-14T01:53:12.724Z,90.50
2017-11-14T01:55:40.195Z,90.30
2017-11-14T01:58:07.679Z,90.40
2017-11-14T02:00:47.124Z,90.40
2017-11-14T02:03:14.603Z,90.40
2017-11-14T02:05:42.847Z,90.30
2017-11-14T02:08:10.335Z,90.30
2017-11-14T02:10:38.429Z,90.30
2017-11-14T02:13:06.398Z,90.30
2017-11-14T02:15:34.122Z,90.30
2017-11-14T02:18:02.622Z,90.30
2017-11-14T02:20:30.215Z,90.30
2017-11-14T02:22:57.704Z,90.30
2017-11-14T02:25:25.195Z,90.30
2017-11-14T02:27:52.683Z,90.30
2017-11-14T02:30:20.303Z,90.30
2017-11-14T02:32:48.552Z,90.30
2017-11-14T02:35:16.238Z,90.30
2017-11-14T02:37:43.768Z,90.20
2017-11-14T02:40:12.041Z,90.40
2017-11-14T02:42:39.544Z,90.20
2017-11-14T02:45:07.025Z,90.20
2017-11-14T02:47:34.594Z,90.20
2017-11-14T02:50:02.731Z,90.20
2017-11-14T02:52:30.339Z,90.20
2017-11-14T02:54:58.665Z,90.20
2017-11-14T02:57:26.914Z,90.10
2017-11-14T02:59:54.396Z,90.10
2017-11-14T03:02:21.900Z,90.60
2017-11-14T03:04:49.389Z,90.10
2017-11-14T03:07:16.911Z,90.00
2017-11-14T03:09:45.353Z,90.10
2017-11-14T03:12:13.109Z,90.10
2017-11-14T03:14:40.629Z,90.00
2017-11-14T03:17:08.160Z,90.00
2017-11-14T03:19:35.650Z,90.00
2017-11-14T03:22:03.125Z,90.00
2017-11-14T03:24:31.377Z,90.00
2017-11-14T03:26:58.880Z,90.00
2017-11-14T03:29:26.628Z,89.80
2017-11-14T03:31:54.955Z,89.70
2017-11-14T03:34:22.446Z,89.70
2017-11-14T03:36:50.706Z,90.30
2017-11-14T03:39:18.180Z,90.00
2017-11-14T03:41:46.439Z,89.80
2017-11-14T03:44:13.925Z,89.80
2017-11-14T03:46:42.167Z,90.00
2017-11-14T03:49:09.668Z,90.00
2017-11-14T03:51:37.963Z,89.60
2017-11-14T03:54:05.526Z,89.60
2017-11-14T03:56:33.003Z,89.80
2017-11-14T03:59:00.491Z,89.80
2017-11-14T04:01:28.736Z,89.70
2017-11-14T04:03:56.339Z,89.70
2017-11-14T04:06:24.772Z,89.60
2017-11-14T04:08:52.531Z,89.60
2017-11-14T04:11:20.180Z,89.60
2017-11-14T04:13:47.667Z,89.50
2017-11-14T04:16:15.159Z,89.60
2017-11-14T04:18:43.408Z,89.70
2017-11-14T04:21:10.900Z,89.70
2017-11-14T04:23:38.439Z,89.40
2017-11-14T04:26:06.700Z,89.40
2017-11-14T04:28:34.238Z,89.40
2017-11-14T04:31:01.719Z,90.10
2017-11-14T04:33:29.232Z,89.30
2017-11-14T04:35:56.725Z,89.40
2017-11-14T04:38:24.215Z,89.30
2017-11-14T04:40:52.548Z,89.50
2017-11-14T04:43:20.080Z,89.50
2017-11-14T04:45:47.596Z,89.40
2017-11-14T04:48:15.060Z,89.60
2017-11-14T04:50:43.326Z,89.40
2017-11-14T04:53:11.569Z,89.40
2017-11-14T04:55:39.107Z,89.40
2017-11-14T04:58:06.688Z,89.50
2017-11-14T05:00:35.972Z,89.50
2017-11-14T05:03:03.832Z,89.50
2017-11-14T05:05:31.489Z,89.40
2017-11-14T05:07:59.008Z,89.30
2017-11-14T05:10:27.267Z,89.30
2017-11-14T05:12:54.762Z,89.30
2017-11-14T05:15:22.248Z,89.40
2017-11-14T05:17:49.788Z,89.40
2017-11-14T05:20:17.466Z,89.30
2017-11-14T05:22:44.976Z,89.30
2017-11-14T05:25:13.292Z,89.50
2017-11-14T05:27:40.759Z,89.50
2017-11-14T05:30:09.005Z,89.70
2017-11-14T05:32:36.500Z,89.70
2017-11-14T05:35:04.047Z,89.80
2017-11-14T05:37:31.623Z,89.80
2017-11-14T05:39:59.136Z,89.70
2017-11-14T05:42:26.620Z,89.50
2017-11-14T05:44:54.107Z,89.70
2017-11-14T05:47:21.600Z,90.00
2017-11-14T05:49:49.252Z,89.90
2017-11-14T05:52:18.243Z,89.90
2017-11-14T05:54:47.069Z,90.00
2017-11-14T05:57:14.658Z,90.00
2017-11-14T05:59:42.246Z,90.00
2017-11-14T06:02:09.783Z,90.00
2017-11-14T06:04:37.307Z,90.00
2017-11-14T06:07:04.793Z,90.00
2017-11-14T06:09:32.279Z,90.10
2017-11-14T06:12:00.567Z,90.10
2017-11-14T06:14:28.247Z,90.10
2017-11-14T06:16:55.792Z,90.10
2017-11-14T06:19:23.275Z,90.10
2017-11-14T06:21:50.763Z,90.10
2017-11-14T06:24:18.247Z,90.10
2017-11-14T06:26:46.501Z,90.10
2017-11-14T06:29:14.122Z,90.10
2017-11-14T06:31:41.667Z,90.10
2017-11-14T06:34:09.140Z,90.10
2017-11-14T06:36:36.632Z,90.10
2017-11-14T06:39:04.112Z,90.10
2017-11-14T06:41:32.356Z,90.10
2017-11-14T06:43:59.853Z,90.10
2017-11-14T06:46:27.750Z,90.10
2017-11-14T06:48:55.421Z,90.10
2017-11-14T06:51:23.036Z,90.10
2017-11-14T06:53:51.393Z,90.10
2017-11-14T06:56:18.904Z,90.10
2017-11-14T06:58:46.390Z,90.10
2017-11-14T07:01:13.874Z,90.10
2017-11-14T07:03:42.124Z,90.10
2017-11-14T07:06:09.672Z,90.00
2017-11-14T07:08:37.322Z,90.10
2017-11-14T07:11:04.793Z,90.10
2017-11-14T07:13:32.280Z,90.00
2017-11-14T07:16:00.541Z,90.10
2017-11-14T07:18:28.024Z,90.00
2017-11-14T07:20:55.520Z,90.00
2017-11-14T07:23:23.197Z,90.10
2017-11-14T07:25:50.755Z,90.10
2017-11-14T07:28:18.224Z,90.40
2017-11-14T07:30:45.691Z,90.10
2017-11-14T07:33:13.183Z,90.10
2017-11-14T07:35:40.730Z,90.10
2017-11-14T07:38:08.292Z,90.10
2017-11-14T07:40:35.863Z,90.10
2017-11-14T07:43:03.392Z,90.10
2017-11-14T07:45:31.635Z,90.00
2017-11-14T07:47:59.114Z,90.00
2017-11-14T07:50:26.603Z,90.00
2017-11-14T07:52:54.104Z,90.10
2017-11-14T07:55:21.665Z,90.00
2017-11-14T07:57:50.044Z,90.10
2017-11-14T08:00:17.509Z,90.10
2017-11-14T08:02:45.005Z,90.10
2017-11-14T08:05:13.245Z,90.10
2017-11-14T08:07:40.748Z,90.00
2017-11-14T08:10:08.252Z,90.10
2017-11-14T08:12:35.791Z,90.10
2017-11-14T08:15:04.072Z,90.10
2017-11-14T08:17:31.553Z,90.10
2017-11-14T08:19:59.023Z,90.10
2017-11-14T08:22:27.280Z,90.00
2017-11-14T08:24:54.942Z,90.00
2017-11-14T08:27:22.540Z,90.00
2017-11-14T08:29:51.127Z,90.10
2017-11-14T08:32:18.837Z,90.10
2017-11-14T08:34:47.347Z,90.10
2017-11-14T08:37:14.830Z,90.10
2017-11-14T08:39:42.312Z,90.10
2017-11-14T08:42:09.810Z,90.20
2017-11-14T08:44:37.295Z,90.10
2017-11-14T08:47:05.591Z,90.10
2017-11-14T08:49:33.170Z,90.10
2017-11-14T08:52:00.718Z,90.10
2017-11-14T08:54:28.200Z,90.20
2017-11-14T08:56:55.723Z,90.20
2017-11-14T08:59:23.948Z,90.20
2017-11-14T09:01:51.420Z,90.10
2017-11-14T09:04:19.784Z,90.20
2017-11-14T09:06:48.068Z,90.30
2017-11-14T09:09:16.380Z,90.20
2017-11-14T09:11:43.892Z,90.20
2017-11-14T09:14:11.385Z,90.20
2017-11-14T09:16:38.883Z,90.20
2017-11-14T09:19:06.372Z,90.60
2017-11-14T09:21:34.631Z,90.20
2017-11-14T09:24:02.318Z,90.20
2017-11-14T09:26:30.596Z,90.20
2017-11-14T09:28:59.160Z,90.20
2017-11-14T09:31:27.164Z,90.20
2017-11-14T09:33:55.679Z,90.20
2017-11-14T09:36:23.261Z,90.20
2017-11-14T09:38:51.521Z,90.20
2017-11-14T09:41:19.019Z,90.20
2017-11-14T09:43:47.265Z,90.30
2017-11-14T09:46:14.740Z,90.20
2017-11-14T09:48:43.118Z,90.30
2017-11-14T09:51:11.394Z,90.70
2017-11-14T09:53:39.655Z,90.30
2017-11-14T09:56:07.284Z,90.20
2017-11-14T09:58:34.845Z,90.30
2017-11-14T10:01:02.330Z,90.30
2017-11-14T10:03:29.816Z,90.30
2017-11-14T10:05:58.073Z,90.30
2017-11-14T10:08:25.568Z,90.30
2017-11-14T10:10:53.115Z,90.20
2017-11-14T10:13:20.662Z,90.30
2017-11-14T10:15:48.213Z,90.30
2017-11-14T10:18:15.696Z,90.30
2017-11-14T10:20:43.179Z,90.30
2017-11-14T10:23:10.679Z,90.40
2017-11-14T10:25:38.193Z,90.30
2017-11-14T10:28:05.861Z,90.30
2017-11-14T10:30:33.462Z,90.30
2017-11-14T10:33:01.792Z,90.40
2017-11-14T10:35:29.279Z,90.40
2017-11-14T10:37:56.760Z,90.30
2017-11-14T10:40:25.021Z,90.40
2017-11-14T10:42:53.271Z,90.50
2017-11-14T10:45:20.815Z,90.40
2017-11-14T10:47:48.521Z,90.40
2017-11-14T10:50:16.850Z,90.70
2017-11-14T10:52:44.400Z,90.40
2017-11-14T10:55:11.876Z,90.30
2017-11-14T10:57:39.376Z,90.40
2017-11-14T11:00:07.608Z,90.40
2017-11-14T11:02:35.086Z,90.40
2017-11-14T11:05:02.583Z,90.40
2017-11-14T11:07:30.116Z,90.40
2017-11-14T11:09:58.404Z,90.50
2017-11-14T11:12:26.639Z,90.80
2017-11-14T11:14:54.115Z,90.40
2017-11-14T11:17:21.604Z,90.40
2017-11-14T11:19:49.184Z,90.50
2017-11-14T11:22:17.051Z,90.40
2017-11-14T11:24:44.715Z,90.50
2017-11-14T11:27:12.330Z,90.40
2017-11-14T11:29:39.836Z,90.40
2017-11-14T11:32:07.311Z,90.40
2017-11-14T11:34:34.791Z,90.50
2017-11-14T11:37:02.311Z,90.50
2017-11-14T11:39:29.837Z,90.50
2017-11-14T11:41:58.166Z,90.60
2017-11-14T11:44:26.422Z,90.60
2017-11-14T11:46:53.903Z,90.60
2017-11-14T11:49:21.390Z,90.60
2017-11-14T11:51:49.643Z,90.60
2017-11-14T11:54:17.147Z,90.50
2017-11-14T11:56:44.832Z,90.50
2017-11-14T11:59:12.403Z,90.50
2017-11-14T12:01:39.883Z,90.60
2017-11-14T12:04:07.363Z,90.60
2017-11-14T12:06:35.604Z,90.60
2017-11-14T12:09:03.088Z,90.60
2017-11-14T12:11:31.385Z,90.60
2017-11-14T12:13:58.928Z,90.60
2017-11-14T12:16:27.511Z,90.60
2017-11-14T12:18:55.185Z,90.60
2017-11-14T12:21:23.544Z,90.60
2017-11-14T12:23:51.808Z,90.70
2017-11-14T12:26:19.311Z,90.70
2017-11-14T12:28:46.820Z,90.70
2017-11-14T12:31:14.311Z,90.70
2017-11-14T12:33:41.814Z,90.70
2017-11-14T12:36:09.348Z,90.70
2017-11-14T12:38:36.879Z,90.70
2017-11-14T12:41:05.135Z,90.70
2017-11-14T12:43:33.390Z,90.80
2017-11-14T12:46:00.863Z,90.70
2017-11-14T12:48:29.119Z,90.70
2017-11-14T12:50:56.598Z,90.70
2017-11-14T12:53:24.910Z,90.80
2017-11-14T12:55:52.494Z,90.70
2017-11-14T12:58:20.051Z,90.70
2017-11-14T13:00:47.540Z,90.80
2017-11-14T13:03:15.012Z,90.80
2017-11-14T13:05:43.268Z,90.80
2017-11-14T13:08:10.746Z,90.70
2017-11-14T13:10:39.118Z,90.80
2017-11-14T13:13:07.530Z,90.80
2017-11-14T13:15:35.080Z,90.80
2017-11-14T13:18:02.724Z,90.80
2017-11-14T13:20:30.185Z,90.80
2017-11-14T13:22:57.684Z,90.80
2017-11-14T13:25:25.167Z,90.80
2017-11-14T13:27:52.657Z,90.80
2017-11-14T13:30:20.201Z,90.80
2017-11-14T13:32:47.722Z,90.80
2017-11-14T13:35:15.205Z,90.80
2017-11-14T13:37:42.688Z,90.80
2017-11-14T13:40:10.192Z,90.80
2017-11-14T13:42:37.703Z,90.80
2017-11-14T13:45:05.194Z,90.80
2017-11-14T13:47:32.688Z,90.80
2017-11-14T13:50:00.158Z,90.80
2017-11-14T13:52:28.419Z,90.80
2017-11-14T13:54:55.924Z,90.80
2017-11-14T13:57:23.513Z,90.80
2017-11-14T13:59:51.148Z,90.80
2017-11-14T14:02:18.661Z,90.80
2017-11-14T14:04:46.926Z,91.30
2017-11-14T14:07:14.428Z,90.80
2017-11-14T14:09:41.928Z,91.10
2017-11-14T14:12:09.471Z,90.90
2017-11-14T14:14:36.999Z,90.90
2017-11-14T14:17:04.510Z,90.90
2017-11-14T14:19:32.013Z,90.90
2017-11-14T14:21:59.488Z,90.80
2017-11-14T14:24:26.992Z,90.80
2017-11-14T14:26:54.472Z,90.80
2017-11-14T14:29:22.810Z,90.90
2017-11-14T14:31:50.447Z,90.80
2017-11-14T14:34:17.936Z,90.90
2017-11-14T14:36:45.440Z,90.90
2017-11-14T14:39:12.914Z,90.80
2017-11-14T14:41:40.476Z,90.80
2017-11-14T14:44:08.043Z,90.90
2017-11-14T14:46:35.861Z,90.90
2017-11-14T14:49:04.287Z,91.10
2017-11-14T14:51:31.838Z,90.80
2017-11-14T14:54:00.156Z,90.80
2017-11-14T14:56:27.644Z,91.20
2017-11-14T14:58:55.132Z,90.80
2017-11-14T15:01:22.710Z,90.80
2017-11-14T15:03:50.246Z,90.80
2017-11-14T15:06:17.787Z,90.80
2017-11-14T15:08:45.334Z,90.90
2017-11-14T15:11:13.575Z,90.90
2017-11-14T15:13:41.186Z,91.20
2017-11-14T15:16:08.672Z,90.80
2017-11-14T15:18:36.167Z,90.90
2017-11-14T15:21:04.488Z,90.80
2017-11-14T15:23:32.026Z,90.80
2017-11-14T15:25:59.549Z,90.90
2017-11-14T15:28:27.036Z,90.80
2017-11-14T15:30:54.545Z,90.80
2017-11-14T15:33:22.068Z,90.90
2017-11-14T15:35:49.761Z,90.80
2017-11-14T15:38:17.459Z,90.90
2017-11-14T15:40:45.777Z,90.90
2017-11-14T15:43:13.298Z,90.90
2017-11-14T15:45:41.639Z,90.90
2017-11-14T15:48:09.136Z,90.90
2017-11-14T15:50:36.669Z,90.90
2017-11-14T15:53:04.437Z,90.90
2017-11-14T15:55:32.749Z,90.90
2017-11-14T15:58:00.451Z,90.90
2017-11-14T16:00:28.016Z,90.90
2017-11-14T16:02:55.511Z,90.90
2017-11-14T16:05:23.801Z,90.90
2017-11-14T16:07:51.295Z,90.90
2017-11-14T16:10:18.828Z,90.90
2017-11-14T16:12:46.801Z,90.90
2017-11-14T16:15:14.347Z,90.90
2017-11-14T16:17:41.882Z,90.90
2017-11-14T16:20:10.140Z,90.90
2017-11-14T16:22:37.628Z,90.90
2017-11-14T16:25:05.163Z,90.90
2017-11-14T16:27:33.500Z,91.00
2017-11-14T16:30:01.976Z,91.20
2017-11-14T16:32:29.493Z,90.90
2017-11-14T16:34:57.084Z,90.90
2017-11-14T16:37:24.725Z,90.90
2017-11-14T16:39:52.212Z,90.90
2017-11-14T16:42:19.714Z,91.00
2017-11-14T16:44:47.968Z,90.90
2017-11-14T16:47:15.455Z,90.90
2017-11-14T16:49:43.747Z,91.00
2017-11-14T16:52:11.331Z,90.90
2017-11-14T16:54:38.829Z,90.90
2017-11-14T16:57:06.301Z,91.00
2017-11-14T16:59:34.698Z,90.90
2017-11-14T17:02:02.178Z,90.90
2017-11-14T17:04:29.675Z,90.90
2017-11-14T17:06:57.184Z,90.90
2017-11-14T17:09:24.779Z,91.30
2017-11-14T17:11:52.280Z,91.30
2017-11-14T17:14:20.537Z,91.20
2017-11-14T17:16:48.788Z,91.10
2017-11-14T17:19:16.297Z,91.10
2017-11-14T17:21:43.779Z,91.10
2017-11-14T17:24:11.317Z,91.10
2017-11-14T17:26:39.658Z,91.20
2017-11-14T17:29:07.316Z,91.20
2017-11-14T17:31:34.835Z,91.30
2017-11-14T17:34:02.324Z,91.30
2017-11-14T17:36:29.800Z,91.40
2017-11-14T17:38:58.080Z,91.40
2017-11-14T17:41:26.400Z,91.50
2017-11-14T17:43:53.991Z,91.40
2017-11-14T17:46:21.662Z,91.40
2017-11-14T17:48:50.048Z,91.50
2017-11-14T17:51:17.525Z,91.50
2017-11-14T17:53:45.115Z,91.50
2017-11-14T17:56:12.702Z,91.40
2017-11-14T17:58:40.368Z,91.70
2017-11-14T18:01:08.057Z,91.80
2017-11-14T18:03:36.427Z,91.70
2017-11-14T18:06:04.810Z,91.60
2017-11-14T18:08:33.445Z,91.60
2017-11-14T18:11:01.067Z,91.60
2017-11-14T18:13:28.797Z,91.60
2017-11-14T18:15:56.277Z,91.60
2017-11-14T18:18:23.762Z,91.50
2017-11-14T18:20:51.425Z,91.40
2017-11-14T18:23:19.140Z,91.40
2017-11-14T18:25:46.652Z,91.40
2017-11-14T18:28:14.144Z,91.40
2017-11-14T18:30:41.727Z,91.30
2017-11-14T18:33:09.998Z,91.20
2017-11-14T18:35:40.290Z,91.30
2017-11-14T18:38:07.882Z,91.20
2017-11-14T18:40:36.187Z,91.20
2017-11-14T18:43:03.688Z,91.20
2017-11-14T18:45:31.261Z,91.20
2017-11-14T18:47:58.980Z,91.10
2017-11-14T18:50:26.580Z,91.10
2017-11-14T18:52:54.070Z,91.10
2017-11-14T18:55:22.307Z,91.10
2017-11-14T18:57:49.808Z,91.10
2017-11-14T19:00:17.409Z,91.10
2017-11-14T19:02:45.665Z,91.10
2017-11-14T19:05:13.188Z,91.10
2017-11-14T19:07:41.529Z,91.10
2017-11-14T19:10:09.065Z,91.10
2017-11-14T19:12:36.646Z,91.10
2017-11-14T19:15:04.198Z,91.10
2017-11-14T19:17:32.554Z,91.40
2017-11-14T19:20:00.250Z,91.10
2017-11-14T19:22:29.039Z,91.10
2017-11-14T19:24:57.101Z,91.00
2017-11-14T19:27:24.860Z,91.50
2017-11-14T19:29:52.459Z,91.00
2017-11-14T19:32:19.966Z,91.10
2017-11-14T19:34:48.345Z,91.00
2017-11-14T19:37:15.838Z,91.00
2017-11-14T19:39:44.192Z,91.00
2017-11-14T19:42:11.857Z,90.90
2017-11-14T19:44:39.421Z,91.00
2017-11-14T19:47:07.007Z,91.00
2017-11-14T19:49:34.649Z,91.00
2017-11-14T19:52:03.016Z,90.90
2017-11-14T19:54:31.088Z,90.90
2017-11-14T19:56:58.665Z,90.90
2017-11-14T19:59:26.937Z,91.00
2017-11-14T20:01:54.959Z,91.00
2017-11-14T20:04:25.108Z,91.00
2017-11-14T20:06:52.702Z,91.00
2017-11-14T20:09:21.734Z,91.00
2017-11-14T20:11:50.315Z,91.00
2017-11-14T20:14:18.000Z,91.00
2017-11-14T20:16:46.534Z,91.00
2017-11-14T20:19:14.218Z,91.10
2017-11-14T20:21:41.780Z,91.10
2017-11-14T20:24:09.377Z,91.10
2017-11-14T20:26:37.206Z,91.10
2017-11-14T20:29:04.698Z,91.10
2017-11-14T20:31:33.682Z,91.10
2017-11-14T20:34:02.054Z,91.10
2017-11-14T20:36:30.545Z,91.10
2017-11-14T20:38:58.278Z,91.20
2017-11-14T20:41:26.159Z,91.10
2017-11-14T20:43:54.921Z,91.10
2017-11-14T20:46:22.811Z,91.10
2017-11-14T20:48:50.289Z,91.10
2017-11-14T20:51:18.011Z,91.10
2017-11-14T20:53:45.514Z,91.30
2017-11-14T20:56:13.845Z,91.10
2017-11-14T20:58:41.486Z,91.00
2017-11-14T21:01:11.225Z,91.00
2017-11-14T21:03:38.779Z,91.00
2017-11-14T21:06:06.314Z,91.00
2017-11-14T21:08:33.810Z,91.00
2017-11-14T21:11:01.364Z,91.00
2017-11-14T21:13:28.884Z,91.00
2017-11-14T21:15:56.397Z,91.00
2017-11-14T21:18:23.926Z,91.00
2017-11-14T21:20:51.792Z,91.00
2017-11-14T21:23:19.625Z,91.00
2017-11-14T21:25:47.261Z,91.00
2017-11-14T21:28:15.544Z,91.00
2017-11-14T21:30:43.878Z,91.00
2017-11-14T21:33:11.488Z,91.00
2017-11-14T21:35:39.814Z,91.00
2017-11-14T21:38:07.395Z,91.00
2017-11-14T21:40:35.237Z,91.00
2017-11-14T21:43:02.994Z,91.00
2017-11-14T21:45:30.535Z,91.00
2017-11-14T21:47:58.113Z,91.00
2017-11-14T21:50:26.558Z,91.00
2017-11-14T21:52:54.791Z,90.90
2017-11-14T21:55:22.857Z,90.90
2017-11-14T21:57:50.336Z,90.90
2017-11-14T22:00:17.894Z,90.90
2017-11-14T22:02:45.510Z,91.20
2017-11-14T22:05:13.476Z,90.80
2017-11-14T22:07:40.959Z,90.80
2017-11-14T22:10:08.445Z,90.80
2017-11-14T22:12:36.742Z,90.80
2017-11-14T22:15:04.277Z,90.80
2017-11-14T22:17:32.635Z,90.80
2017-11-14T22:20:00.178Z,90.80
2017-11-14T22:22:27.813Z,90.70
2017-11-14T22:24:55.308Z,90.70
2017-11-14T22:27:22.816Z,90.70
2017-11-14T22:29:50.297Z,90.70
2017-11-14T22:32:17.784Z,90.70
2017-11-14T22:34:55.276Z,90.70
2017-11-14T22:37:22.862Z,90.70
2017-11-14T22:39:51.296Z,90.70
2017-11-14T22:42:18.938Z,90.70
2017-11-14T22:44:46.484Z,90.70
2017-11-14T22:47:13.981Z,90.70
2017-11-14T22:49:41.479Z,90.70
2017-11-14T22:52:09.725Z,90.70
2017-11-14T22:54:37.218Z,90.70
2017-11-14T22:57:04.754Z,90.70
2017-11-14T22:59:32.402Z,90.70
2017-11-14T23:02:00.124Z,90.70
2017-11-14T23:04:27.655Z,91.00
2017-11-14T23:06:55.916Z,90.70
2017-11-14T23:09:24.165Z,90.60
2017-11-14T23:11:51.641Z,90.60
2017-11-14T23:14:19.905Z,90.60
2017-11-14T23:16:47.406Z,90.60
2017-11-14T23:19:14.893Z,90.60
2017-11-14T23:21:42.399Z,90.60
2017-11-14T23:24:10.700Z,90.60
2017-11-14T23:26:38.179Z,90.60
2017-11-14T23:29:05.671Z,90.60
2017-11-14T23:31:33.936Z,90.90
2017-11-14T23:34:01.492Z,90.60
2017-11-14T23:36:29.072Z,90.60
2017-11-14T23:38:57.452Z,90.60
2017-11-14T23:41:24.980Z,90.60
2017-11-14T23:43:52.464Z,90.60
2017-11-14T23:46:19.940Z,90.60
2017-11-14T23:48:47.432Z,91.00
2017-11-14T23:51:15.341Z,90.60
2017-11-14T23:53:43.627Z,90.60
2017-11-14T23:56:11.887Z,90.60
2017-11-14T23:58:39.719Z,90.50
